createdAt,value
2023-01-03T00:01:12.765Z,99796.13
2023-01-03T00:03:39.687Z,99797.50
2023-01-03T00:06:14.364Z,99805.31
2023-01-03T00:08:41.279Z,99790.97
2023-01-03T00:11:13.269Z,99761.56
2023-01-03T00:13:40.291Z,99789.22
2023-01-03T00:16:18.029Z,99799.19
2023-01-03T00:18:45.089Z,99809.81
2023-01-03T00:21:12.352Z,99803.84
2023-01-03T00:23:39.281Z,99778.22
2023-01-03T00:26:13.023Z,99804.72
2023-01-03T00:28:39.903Z,99807.19
2023-01-03T00:31:11.533Z,99808.56
2023-01-03T00:33:39.526Z,99811.56
2023-01-03T00:36:07.879Z,99816.19
2023-01-03T00:38:35.421Z,99822.44
2023-01-03T00:41:20.480Z,99833.28
2023-01-03T00:43:48.518Z,99828.19
2023-01-03T00:46:16.446Z,99790.91
2023-01-03T00:48:43.428Z,99810.91
2023-01-03T00:51:18.019Z,99840.13
2023-01-03T00:53:46.512Z,99839.31
2023-01-03T00:56:18.310Z,99841.06
2023-01-03T00:58:45.340Z,99845.41
2023-01-03T01:01:17.220Z,99811.41
2023-01-03T01:03:46.457Z,99784.41
2023-01-03T01:06:24.354Z,99811.19
2023-01-03T01:08:52.164Z,99849.25
2023-01-03T01:11:19.036Z,99850.88
2023-01-03T01:13:46.311Z,99855.50
2023-01-03T01:16:15.293Z,99846.81
2023-01-03T01:18:44.087Z,99844.91
2023-01-03T01:21:13.012Z,99847.91
2023-01-03T01:23:40.812Z,99859.34
2023-01-03T01:26:08.575Z,99847.13
2023-01-03T01:28:35.431Z,99822.84
2023-01-03T01:31:03.493Z,99844.56
2023-01-03T01:33:32.225Z,99871.56
2023-01-03T01:35:59.214Z,99860.81
2023-01-03T01:38:26.092Z,99866.69
2023-01-03T01:40:53.085Z,99864.03
2023-01-03T01:43:40.452Z,99838.13
2023-01-03T01:46:22.185Z,99881.97
2023-01-03T01:48:52.394Z,99861.41
2023-01-03T01:51:19.239Z,99880.06
2023-01-03T01:53:46.063Z,99878.75
2023-01-03T01:56:17.750Z,99873.34
2023-01-03T01:58:45.732Z,99823.31
2023-01-03T02:01:13.840Z,99865.22
2023-01-03T02:03:41.883Z,99866.59
2023-01-03T02:06:10.406Z,99836.88
2023-01-03T02:08:37.424Z,99874.47
2023-01-03T02:11:17.941Z,99826.66
2023-01-03T02:14:05.558Z,99866.34
2023-01-03T02:16:48.492Z,99876.41
2023-01-03T02:19:36.840Z,99879.41
2023-01-03T02:22:37.402Z,99868.81
2023-01-03T02:25:19.076Z,99875.91
2023-01-03T02:28:38.975Z,99843.19
2023-01-03T02:31:09.836Z,99873.75
2023-01-03T02:33:46.150Z,99884.06
2023-01-03T02:36:31.397Z,99879.97
2023-01-03T02:39:13.236Z,99881.34
2023-01-03T02:41:47.790Z,99889.50
2023-01-03T02:44:16.588Z,99885.97
2023-01-03T02:46:58.448Z,99892.19
2023-01-03T02:49:35.342Z,99897.63
2023-01-03T02:52:16.795Z,99896.81
2023-01-03T02:55:00.906Z,99829.44
2023-01-03T02:57:31.462Z,99887.63
2023-01-03T03:00:01.088Z,99887.34
2023-01-03T03:02:30.076Z,99907.41
2023-01-03T03:04:57.164Z,99900.34
2023-01-03T03:07:28.687Z,99900.59
2023-01-03T03:10:17.053Z,99895.69
2023-01-03T03:13:03.677Z,99896.16
2023-01-03T03:15:58.778Z,99897.44
2023-01-03T03:18:45.496Z,99910.13
2023-01-03T03:21:30.786Z,99917.09
2023-01-03T03:24:18.205Z,99908.28
2023-01-03T03:26:45.076Z,99913.03
2023-01-03T03:29:14.839Z,99850.53
2023-01-03T03:31:49.295Z,99862.91
2023-01-03T03:34:22.790Z,99914.88
2023-01-03T03:37:12.331Z,99918.75
2023-01-03T03:39:57.716Z,99918.41
2023-01-03T03:42:47.256Z,99929.91
2023-01-03T03:45:19.235Z,99931.00
2023-01-03T03:47:56.851Z,99915.84
2023-01-03T03:50:43.508Z,99880.38
2023-01-03T03:53:10.482Z,99947.50
2023-01-03T03:55:40.237Z,99949.75
2023-01-03T03:58:09.829Z,99946.88
2023-01-03T04:00:38.509Z,99921.19
2023-01-03T04:03:05.597Z,99950.09
2023-01-03T04:05:37.577Z,99949.66
2023-01-03T04:08:04.785Z,99951.44
2023-01-03T04:10:37.366Z,99958.41
2023-01-03T04:13:04.644Z,99966.13
2023-01-03T04:15:31.474Z,99968.84
2023-01-03T04:17:58.361Z,99968.97
2023-01-03T04:20:25.439Z,99983.59
2023-01-03T04:22:52.307Z,99971.91
2023-01-03T04:25:19.139Z,99987.41
2023-01-03T04:27:46.034Z,99991.88
2023-01-03T04:30:13.331Z,99961.03
2023-01-03T04:32:40.380Z,99954.56
2023-01-03T04:35:07.707Z,99989.78
2023-01-03T04:37:34.598Z,99977.84
2023-01-03T04:40:01.479Z,99983.53
2023-01-03T04:42:47.376Z,100009.50
2023-01-03T04:45:14.447Z,99999.91
2023-01-03T04:47:41.349Z,100003.53
2023-01-03T04:50:09.731Z,100024.34
2023-01-03T04:52:36.679Z,100012.72
2023-01-03T04:55:04.018Z,100016.75
2023-01-03T04:57:30.967Z,100007.19
2023-01-03T04:59:57.970Z,100022.03
2023-01-03T05:02:24.969Z,100031.94
2023-01-03T05:04:52.000Z,100023.91
2023-01-03T05:07:19.009Z,100024.81
2023-01-03T05:09:46.204Z,100021.06
2023-01-03T05:12:13.228Z,100022.84
2023-01-03T05:14:42.791Z,100016.78
2023-01-03T05:17:09.808Z,100012.66
2023-01-03T05:19:57.343Z,99999.13
2023-01-03T05:22:42.981Z,100006.28
2023-01-03T05:25:29.424Z,100008.78
2023-01-03T05:27:56.597Z,100007.41
2023-01-03T05:30:24.079Z,99988.25
2023-01-03T05:32:51.136Z,100006.53
2023-01-03T05:35:18.488Z,100002.56
2023-01-03T05:37:45.380Z,100015.28
2023-01-03T05:40:12.774Z,100013.78
2023-01-03T05:42:40.076Z,100025.53
2023-01-03T05:45:08.031Z,100033.06
2023-01-03T05:47:35.130Z,100037.16
2023-01-03T05:50:02.236Z,100039.63
2023-01-03T05:52:29.318Z,100043.59
2023-01-03T05:54:56.336Z,100048.59
2023-01-03T05:57:24.101Z,100050.66
2023-01-03T05:59:51.121Z,100026.72
2023-01-03T06:02:18.261Z,100054.63
2023-01-03T06:04:45.377Z,100070.25
2023-01-03T06:07:12.579Z,100077.94
2023-01-03T06:09:39.705Z,100079.25
2023-01-03T06:12:06.743Z,100088.38
2023-01-03T06:14:33.606Z,100097.25
2023-01-03T06:17:19.115Z,100098.72
2023-01-03T06:19:46.059Z,100097.53
2023-01-03T06:22:13.078Z,100107.97
2023-01-03T06:24:40.241Z,100101.28
2023-01-03T06:27:07.311Z,100095.94
2023-01-03T06:29:34.432Z,100104.19
2023-01-03T06:32:08.643Z,100098.72
2023-01-03T06:34:36.424Z,100097.91
2023-01-03T06:37:03.917Z,100101.84
2023-01-03T06:39:31.331Z,100110.13
2023-01-03T06:41:58.489Z,100130.88
2023-01-03T06:44:25.471Z,100127.19
2023-01-03T06:47:10.774Z,100135.25
2023-01-03T06:50:06.931Z,100138.09
2023-01-03T06:52:52.659Z,100141.88
2023-01-03T06:55:20.547Z,100145.59
2023-01-03T06:57:47.589Z,100142.59
2023-01-03T07:00:14.918Z,100141.25
2023-01-03T07:02:42.189Z,100140.56
2023-01-03T07:05:09.605Z,100139.66
2023-01-03T07:07:36.670Z,100143.56
2023-01-03T07:10:03.861Z,100155.66
2023-01-03T07:12:49.611Z,100153.41
2023-01-03T07:15:16.709Z,100165.00
2023-01-03T07:17:43.746Z,100162.94
2023-01-03T07:20:10.906Z,100163.38
2023-01-03T07:22:37.944Z,100163.06
2023-01-03T07:25:05.464Z,100103.53
2023-01-03T07:27:32.451Z,100158.53
2023-01-03T07:29:59.532Z,100167.41
2023-01-03T07:32:26.588Z,100167.69
2023-01-03T07:34:53.534Z,100172.06
2023-01-03T07:37:20.678Z,100182.25
2023-01-03T07:39:47.788Z,100185.50
2023-01-03T07:42:33.822Z,100178.34
2023-01-03T07:45:00.817Z,100191.81
2023-01-03T07:47:27.801Z,100169.44
2023-01-03T07:49:54.931Z,100182.22
2023-01-03T07:52:21.971Z,100202.47
2023-01-03T07:54:48.929Z,100207.78
2023-01-03T07:57:16.005Z,100206.63
2023-01-03T07:59:42.917Z,100209.25
2023-01-03T08:02:09.913Z,100215.72
2023-01-03T08:04:37.024Z,100210.22
2023-01-03T08:07:03.985Z,100214.69
2023-01-03T08:09:49.582Z,100223.31
2023-01-03T08:12:34.979Z,100225.91
2023-01-03T08:15:02.102Z,100226.59
2023-01-03T08:17:29.055Z,100224.84
2023-01-03T08:19:55.974Z,100219.66
2023-01-03T08:22:22.986Z,100229.56
2023-01-03T08:24:50.012Z,100228.41
2023-01-03T08:27:16.979Z,100213.41
2023-01-03T08:29:45.853Z,100235.44
2023-01-03T08:32:12.778Z,100230.75
2023-01-03T08:34:41.829Z,100213.03
2023-01-03T08:37:11.105Z,100238.25
2023-01-03T08:39:48.686Z,100235.66
2023-01-03T08:42:15.920Z,100227.72
2023-01-03T08:44:45.247Z,100238.06
2023-01-03T08:47:12.463Z,100226.44
2023-01-03T08:49:39.599Z,100213.94
2023-01-03T08:52:06.604Z,100239.91
2023-01-03T08:54:33.697Z,100237.22
2023-01-03T08:57:00.922Z,100215.69
2023-01-03T08:59:28.114Z,100250.03
2023-01-03T09:01:59.225Z,100229.88
2023-01-03T09:04:26.332Z,100263.94
2023-01-03T09:06:53.300Z,100256.50
2023-01-03T09:09:20.362Z,100255.34
2023-01-03T09:11:47.323Z,100237.34
2023-01-03T09:14:14.506Z,100271.06
2023-01-03T09:16:47.016Z,100274.13
2023-01-03T09:19:15.914Z,100271.53
2023-01-03T09:21:42.909Z,100262.59
2023-01-03T09:24:09.861Z,100248.59
2023-01-03T09:26:36.851Z,100267.69
2023-01-03T09:29:04.512Z,100262.00
2023-01-03T09:31:34.990Z,100215.25
2023-01-03T09:34:03.722Z,100239.75
2023-01-03T09:36:30.836Z,100267.16
2023-01-03T09:38:57.803Z,100238.13
2023-01-03T09:41:25.834Z,100232.16
2023-01-03T09:44:00.939Z,100261.66
2023-01-03T09:46:28.381Z,100242.31
2023-01-03T09:48:55.457Z,100263.59
2023-01-03T09:51:46.068Z,100262.31
2023-01-03T09:54:33.776Z,100267.69
2023-01-03T09:57:24.722Z,100256.41
2023-01-03T10:00:13.905Z,100253.66
2023-01-03T10:03:13.265Z,100251.59
2023-01-03T10:05:59.539Z,100256.41
2023-01-03T10:09:12.004Z,100220.25
2023-01-03T10:12:00.911Z,100243.44
2023-01-03T10:15:25.027Z,100246.88
2023-01-03T10:17:51.914Z,100241.09
2023-01-03T10:20:29.492Z,100238.69
2023-01-03T10:22:59.736Z,100220.94
2023-01-03T10:25:28.896Z,100242.38
2023-01-03T10:28:16.785Z,100239.53
2023-01-03T10:31:07.691Z,100249.03
2023-01-03T10:33:47.491Z,100219.72
2023-01-03T10:36:18.923Z,100200.38
2023-01-03T10:38:52.515Z,100228.19
2023-01-03T10:41:52.434Z,100223.09
2023-01-03T10:44:27.176Z,100234.94
2023-01-03T10:46:55.991Z,100225.53
2023-01-03T10:49:27.853Z,100231.16
2023-01-03T10:52:04.048Z,100237.25
2023-01-03T10:54:32.561Z,100229.00
2023-01-03T10:56:59.673Z,100231.75
2023-01-03T10:59:28.270Z,100229.78
2023-01-03T11:02:16.663Z,100210.72
2023-01-03T11:04:43.906Z,100231.91
2023-01-03T11:07:12.919Z,100238.09
2023-01-03T11:09:51.881Z,100211.38
2023-01-03T11:12:38.863Z,100228.34
2023-01-03T11:15:21.137Z,100224.00
2023-01-03T11:17:54.117Z,100220.66
2023-01-03T11:20:21.561Z,100209.38
2023-01-03T11:23:02.708Z,100181.84
2023-01-03T11:25:52.438Z,100210.81
2023-01-03T11:28:37.771Z,100215.44
2023-01-03T11:31:10.891Z,100211.81
2023-01-03T11:34:22.247Z,100216.50
2023-01-03T11:36:54.455Z,100167.47
2023-01-03T11:40:02.089Z,100169.72
2023-01-03T11:42:37.402Z,100204.97
2023-01-03T11:45:22.800Z,100203.34
2023-01-03T11:48:14.398Z,100198.50
2023-01-03T11:51:03.035Z,100196.03
2023-01-03T11:53:36.880Z,100188.38
2023-01-03T11:56:09.901Z,100195.97
2023-01-03T11:59:11.654Z,100175.41
2023-01-03T12:01:49.304Z,100195.81
2023-01-03T12:04:22.297Z,100191.91
2023-01-03T12:07:14.270Z,100192.03
2023-01-03T12:10:08.319Z,100196.19
2023-01-03T12:13:00.182Z,100189.03
2023-01-03T12:15:28.761Z,100188.22
2023-01-03T12:18:16.640Z,100158.00
2023-01-03T12:20:46.221Z,100164.44
2023-01-03T12:23:20.362Z,100187.06
2023-01-03T12:25:49.185Z,100162.88
2023-01-03T12:28:23.318Z,100182.03
2023-01-03T12:31:04.607Z,100158.84
2023-01-03T12:33:43.197Z,100176.31
2023-01-03T12:36:54.983Z,100184.00
2023-01-03T12:39:36.962Z,100178.84
2023-01-03T12:42:33.906Z,100183.66
2023-01-03T12:45:34.810Z,100146.09
2023-01-03T12:48:46.898Z,100165.31
2023-01-03T12:51:15.382Z,100167.59
2023-01-03T12:53:50.396Z,100173.22
2023-01-03T12:56:26.263Z,100168.19
2023-01-03T12:59:05.982Z,100170.25
2023-01-03T13:02:10.932Z,100168.31
2023-01-03T13:04:39.351Z,100168.50
2023-01-03T13:07:15.440Z,100171.84
2023-01-03T13:09:48.247Z,100159.56
2023-01-03T13:12:29.246Z,100162.47
2023-01-03T13:15:23.394Z,100137.81
2023-01-03T13:17:50.426Z,100155.97
2023-01-03T13:20:29.705Z,100169.47
2023-01-03T13:23:02.893Z,100174.28
2023-01-03T13:25:38.721Z,100167.63
2023-01-03T13:28:06.723Z,100171.53
2023-01-03T13:30:35.169Z,100163.97
2023-01-03T13:33:11.183Z,100166.94
2023-01-03T13:35:43.903Z,100178.34
2023-01-03T13:38:24.522Z,100161.22
2023-01-03T13:43:48.831Z,100165.25
2023-01-03T13:46:20.282Z,100171.66
2023-01-03T13:49:03.259Z,100171.66
2023-01-03T13:51:39.256Z,100176.94
2023-01-03T13:54:12.284Z,100169.91
2023-01-03T13:56:45.361Z,100173.91
2023-01-03T13:59:15.542Z,100178.72
2023-01-03T14:01:58.438Z,100163.69
2023-01-03T14:04:47.313Z,100188.44
2023-01-03T14:07:38.301Z,100183.31
2023-01-03T14:10:13.917Z,100131.38
2023-01-03T14:13:08.204Z,100188.31
2023-01-03T14:15:35.290Z,100186.06
2023-01-03T14:18:24.658Z,100185.34
2023-01-03T14:20:53.023Z,100187.84
2023-01-03T14:26:16.848Z,100192.31
2023-01-03T14:28:47.558Z,100203.69
2023-01-03T14:31:26.821Z,100202.94
2023-01-03T14:33:55.107Z,100210.19
2023-01-03T14:36:22.059Z,100213.47
2023-01-03T14:38:57.671Z,100198.22
2023-01-03T14:41:28.625Z,100219.56
2023-01-03T14:44:02.714Z,100209.75
2023-01-03T14:46:30.095Z,100214.94
2023-01-03T14:49:02.953Z,100216.59
2023-01-03T14:51:35.207Z,100218.22
2023-01-03T14:54:03.064Z,100221.50
2023-01-03T14:56:30.018Z,100223.13
2023-01-03T14:58:57.569Z,100231.06
2023-01-03T15:01:24.605Z,100226.88
2023-01-03T15:03:51.735Z,100213.00
2023-01-03T15:06:21.572Z,100223.66
2023-01-03T15:08:49.990Z,100217.88
2023-01-03T15:11:22.549Z,100203.81
2023-01-03T15:13:49.386Z,100230.63
2023-01-03T15:16:34.585Z,100197.22
2023-01-03T15:19:08.902Z,100228.06
2023-01-03T15:21:35.893Z,100226.94
2023-01-03T15:24:02.989Z,100205.41
2023-01-03T15:26:36.056Z,100246.13
2023-01-03T15:29:23.823Z,100248.53
2023-01-03T15:31:50.727Z,100249.03
2023-01-03T15:34:43.766Z,100248.84
2023-01-03T15:37:10.582Z,100256.75
2023-01-03T15:39:41.954Z,100256.06
2023-01-03T15:42:47.874Z,100262.34
2023-01-03T15:45:33.245Z,100268.31
2023-01-03T15:48:01.362Z,100279.59
2023-01-03T15:50:39.031Z,100271.16
2023-01-03T15:53:06.007Z,100276.81
2023-01-03T15:55:33.017Z,100280.81
2023-01-03T15:57:59.855Z,100270.28
2023-01-03T16:00:26.809Z,100277.84
2023-01-03T16:02:53.822Z,100294.91
2023-01-03T16:05:22.905Z,100292.94
2023-01-03T16:07:50.949Z,100295.47
2023-01-03T16:10:18.003Z,100295.63
2023-01-03T16:12:44.929Z,100296.03
2023-01-03T16:15:21.557Z,100293.47
2023-01-03T16:17:49.345Z,100296.13
2023-01-03T16:20:16.926Z,100272.09
2023-01-03T16:22:57.346Z,100269.69
2023-01-03T16:25:27.296Z,100291.16
2023-01-03T16:27:54.349Z,100292.41
2023-01-03T16:30:21.213Z,100302.34
2023-01-03T16:32:48.044Z,100300.22
2023-01-03T16:35:18.797Z,100297.31
2023-01-03T16:37:45.747Z,100296.13
2023-01-03T16:40:17.676Z,100302.00
2023-01-03T16:42:44.686Z,100296.13
2023-01-03T16:45:11.766Z,100303.13
2023-01-03T16:47:38.770Z,100298.41
2023-01-03T16:50:14.315Z,100304.97
2023-01-03T16:52:43.591Z,100308.94
2023-01-03T16:55:36.661Z,100309.66
2023-01-03T16:58:03.537Z,100305.81
2023-01-03T17:00:31.630Z,100310.31
2023-01-03T17:03:01.930Z,100312.00
2023-01-03T17:05:31.829Z,100271.81
2023-01-03T17:08:03.007Z,100313.84
2023-01-03T17:10:35.230Z,100308.47
2023-01-03T17:13:07.023Z,100311.00
2023-01-03T17:15:37.364Z,100319.81
2023-01-03T17:18:04.364Z,100313.34
2023-01-03T17:20:31.205Z,100321.63
2023-01-03T17:22:59.655Z,100322.47
2023-01-03T17:25:26.644Z,100318.75
2023-01-03T17:27:56.668Z,100304.97
2023-01-03T17:30:24.735Z,100310.22
2023-01-03T17:32:51.759Z,100319.53
2023-01-03T17:35:18.636Z,100322.34
2023-01-03T17:38:23.367Z,100323.84
2023-01-03T17:40:34.280Z,100324.25
2023-01-03T17:43:01.775Z,100327.84
2023-01-03T17:45:47.496Z,100324.13
2023-01-03T17:48:33.363Z,100329.16
2023-01-03T17:51:01.619Z,100327.81
2023-01-03T17:53:28.799Z,100330.63
2023-01-03T17:55:55.701Z,100344.34
2023-01-03T17:58:33.061Z,100346.66
2023-01-03T18:01:00.130Z,100347.53
2023-01-03T18:03:27.150Z,100344.91
2023-01-03T18:05:54.067Z,100350.50
2023-01-03T18:08:21.369Z,100352.72
2023-01-03T18:10:48.352Z,100349.34
2023-01-03T18:13:21.048Z,100338.34
2023-01-03T18:15:48.031Z,100337.69
2023-01-03T18:18:16.383Z,100334.47
2023-01-03T18:20:43.629Z,100336.44
2023-01-03T18:23:18.761Z,100337.09
2023-01-03T18:25:45.717Z,100341.28
2023-01-03T18:28:13.043Z,100335.91
2023-01-03T18:30:39.958Z,100334.91
2023-01-03T18:33:06.877Z,100334.03
2023-01-03T18:35:37.765Z,100337.75
2023-01-03T18:38:05.438Z,100341.13
2023-01-03T18:40:32.371Z,100329.94
2023-01-03T18:43:10.831Z,100341.47
2023-01-03T18:45:38.579Z,100316.22
2023-01-03T18:48:05.662Z,100352.91
2023-01-03T18:50:32.686Z,100348.84
2023-01-03T18:53:00.698Z,100309.88
2023-01-03T18:55:27.919Z,100353.22
2023-01-03T18:57:54.867Z,100308.22
2023-01-03T19:00:23.553Z,100354.38
2023-01-03T19:02:51.089Z,100363.09
2023-01-03T19:05:18.371Z,100360.13
2023-01-03T19:07:45.916Z,100359.06
2023-01-03T19:10:23.682Z,100323.56
2023-01-03T19:12:51.659Z,100360.19
2023-01-03T19:15:20.342Z,100353.16
2023-01-03T19:17:47.308Z,100354.28
2023-01-03T19:20:14.151Z,100359.53
2023-01-03T19:22:41.264Z,100337.09
2023-01-03T19:25:18.570Z,100366.69
2023-01-03T19:27:46.821Z,100344.06
2023-01-03T19:30:37.817Z,100370.06
2023-01-03T19:33:06.169Z,100352.56
2023-01-03T19:35:33.643Z,100378.56
2023-01-03T19:38:00.526Z,100374.00
2023-01-03T19:40:28.873Z,100378.09
2023-01-03T19:42:56.920Z,100370.25
2023-01-03T19:45:31.871Z,100374.94
2023-01-03T19:48:03.812Z,100377.13
2023-01-03T19:50:32.511Z,100373.66
2023-01-03T19:53:01.601Z,100379.09
2023-01-03T19:55:30.230Z,100370.16
2023-01-03T19:57:57.801Z,100342.22
2023-01-03T20:00:29.171Z,100373.19
2023-01-03T20:02:57.114Z,100368.31
2023-01-03T20:05:26.585Z,100364.22
2023-01-03T20:07:53.560Z,100373.75
2023-01-03T20:10:22.617Z,100374.31
2023-01-03T20:12:50.744Z,100376.47
2023-01-03T20:15:20.295Z,100373.78
2023-01-03T20:17:47.117Z,100377.06
2023-01-03T20:20:14.384Z,100354.56
2023-01-03T20:25:31.474Z,100366.50
2023-01-03T20:27:58.859Z,100373.03
2023-01-03T20:30:27.156Z,100370.31
2023-01-03T20:32:54.093Z,100360.81
2023-01-03T20:36:09.780Z,100335.91
2023-01-03T20:38:10.886Z,100367.34
2023-01-03T20:40:38.083Z,100360.06
2023-01-03T20:43:05.535Z,100353.84
2023-01-03T20:45:32.760Z,100393.75
2023-01-03T20:47:59.790Z,100384.22
2023-01-03T20:50:27.125Z,100394.03
2023-01-03T20:52:54.520Z,100397.31
2023-01-03T20:55:23.288Z,100398.13
2023-01-03T20:57:50.268Z,100400.28
2023-01-03T21:00:30.063Z,100401.69
2023-01-03T21:02:57.042Z,100397.88
2023-01-03T21:05:24.100Z,100395.16
2023-01-03T21:08:09.590Z,100397.91
2023-01-03T21:10:38.507Z,100396.81
2023-01-03T21:13:05.550Z,100404.16
2023-01-03T21:15:32.948Z,100394.66
2023-01-03T21:17:59.893Z,100398.19
2023-01-03T21:20:27.629Z,100406.06
2023-01-03T21:22:54.634Z,100409.88
2023-01-03T21:25:34.472Z,100398.75
2023-01-03T21:28:01.897Z,100405.78
2023-01-03T21:30:30.350Z,100401.75
2023-01-03T21:32:57.782Z,100408.75
2023-01-03T21:35:24.825Z,100409.28
2023-01-03T21:37:52.438Z,100409.28
2023-01-03T21:40:29.027Z,100406.59
2023-01-03T21:43:03.645Z,100379.97
2023-01-03T21:45:42.986Z,100373.16
2023-01-03T21:48:11.432Z,100405.50
2023-01-03T21:50:39.980Z,100397.91
2023-01-03T21:53:07.163Z,100400.06
2023-01-03T21:55:34.082Z,100401.94
2023-01-03T21:58:01.051Z,100401.94
2023-01-03T22:00:27.996Z,100402.75
2023-01-03T22:03:13.746Z,100410.31
2023-01-03T22:05:40.713Z,100420.88
2023-01-03T22:08:07.627Z,100417.88
2023-01-03T22:10:34.763Z,100422.47
2023-01-03T22:13:02.780Z,100423.81
2023-01-03T22:15:29.619Z,100359.44
2023-01-03T22:17:56.565Z,100411.06
2023-01-03T22:20:25.002Z,100404.28
2023-01-03T22:22:52.011Z,100407.53
2023-01-03T22:25:20.354Z,100397.75
2023-01-03T22:27:47.401Z,100389.00
2023-01-03T22:30:16.599Z,100399.59
2023-01-03T22:32:43.579Z,100414.81
2023-01-03T22:35:11.484Z,100366.19
2023-01-03T22:37:38.681Z,100412.91
2023-01-03T22:40:07.509Z,100415.28
2023-01-03T22:42:34.476Z,100399.00
2023-01-03T22:45:01.344Z,100410.63
2023-01-03T22:47:28.444Z,100414.13
2023-01-03T22:49:55.538Z,100415.41
2023-01-03T22:52:22.542Z,100388.19
2023-01-03T22:54:49.956Z,100399.88
2023-01-03T22:57:16.838Z,100416.94
2023-01-03T22:59:43.705Z,100411.19
2023-01-03T23:02:10.730Z,100411.94
2023-01-03T23:04:37.728Z,100405.16
2023-01-03T23:07:04.880Z,100380.91
2023-01-03T23:09:31.823Z,100397.25
2023-01-03T23:12:17.466Z,100394.84
2023-01-03T23:14:44.565Z,100347.75
2023-01-03T23:17:30.155Z,100395.56
2023-01-03T23:19:57.074Z,100401.41
2023-01-03T23:22:23.971Z,100418.66
2023-01-03T23:24:50.942Z,100411.56
2023-01-03T23:27:17.785Z,100407.97
2023-01-03T23:29:44.633Z,100403.59
2023-01-03T23:32:11.491Z,100415.19
2023-01-03T23:34:38.497Z,100411.63
2023-01-03T23:37:05.366Z,100410.75
2023-01-03T23:39:32.252Z,100403.34
2023-01-03T23:41:59.095Z,100412.53
2023-01-03T23:44:26.811Z,100409.22
2023-01-03T23:46:53.717Z,100411.53
2023-01-03T23:49:20.638Z,100409.00
2023-01-03T23:51:47.470Z,100410.38
2023-01-03T23:54:14.426Z,100390.56
2023-01-03T23:56:41.353Z,100410.69
2023-01-03T23:59:08.223Z,100413.16
